Time;durP1;ratioP1;P1;durP2;ratioP2;P2;SDS_P1;SDS_P2;PMS_P1;PMS_P2;Temp;Humidity;BMP_temperature;BMP_pressure;BME280_temperature;BME280_humidity;BME280_pressure;Samples;Min_cycle;Max_cycle;Signal;HPM_P1;HPM_P2
2023/05/01 00:01:05;;;;;;;;;;;15.00;99.90;;;;;;5116532;28;19950;-76
2023/05/01 00:03:31;;;;;;;;;;;15.00;99.90;;;;;;5116580;28;20319;-75
2023/05/01 00:06:01;;;;;;;;;;;14.90;99.90;;;;;;5116340;28;19908;-75
2023/05/01 00:08:26;;;;;;;;;;;14.90;99.90;;;;;;5098373;28;20253;-75
2023/05/01 00:10:52;;;;;;;;;;;14.90;99.90;;;;;;5116020;28;20045;-77
2023/05/01 00:13:20;;;;;;;;;;;15.00;99.90;;;;;;5116392;28;19908;-76
2023/05/01 00:15:46;;;;;;;;;;;14.90;99.90;;;;;;5116090;28;20376;-74
2023/05/01 00:18:12;;;;;;;;;;;14.90;99.90;;;;;;5116164;28;19915;-76
2023/05/01 00:20:37;;;;;;;;;;;14.90;99.90;;;;;;5115896;28;19908;-76
2023/05/01 00:23:03;;;;;;;;;;;15.00;99.90;;;;;;5116384;28;19911;-75
2023/05/01 00:25:30;;;;;;;;;;;15.00;99.90;;;;;;5097851;28;19973;-73
2023/05/01 00:27:55;;;;;;;;;;;15.00;99.90;;;;;;5098117;28;19912;-77
2023/05/01 00:30:21;;;;;;;;;;;15.00;99.90;;;;;;5116052;28;19915;-78
2023/05/01 00:32:47;;;;;;;;;;;15.00;99.90;;;;;;5116060;28;19914;-76
2023/05/01 00:35:12;;;;;;;;;;;15.00;99.90;;;;;;5115605;28;19952;-76
2023/05/01 00:37:38;;;;;;;;;;;14.90;99.90;;;;;;5115878;28;19958;-79
2023/05/01 00:40:04;;;;;;;;;;;14.90;99.90;;;;;;5116096;28;19915;-76
2023/05/01 00:42:38;;;;;;;;;;;14.70;99.90;;;;;;5115834;28;19985;-76
2023/05/01 00:45:06;;;;;;;;;;;14.70;99.90;;;;;;5116409;28;19908;-75
2023/05/01 00:47:34;;;;;;;;;;;14.60;99.90;;;;;;5116496;28;19987;-75
2023/05/01 00:49:59;;;;;;;;;;;14.70;99.90;;;;;;5116167;28;20008;-76
2023/05/01 00:52:25;;;;;;;;;;;14.70;99.90;;;;;;5116045;28;19912;-75
2023/05/01 00:54:51;;;;;;;;;;;14.70;99.90;;;;;;5116514;28;20431;-76
2023/05/01 00:57:18;;;;;;;;;;;14.70;99.90;;;;;;5116358;28;19908;-77
2023/05/01 00:59:43;;;;;;;;;;;14.70;99.90;;;;;;5116255;28;20280;-75
2023/05/01 01:02:11;;;;;;;;;;;14.70;99.90;;;;;;5116458;28;19919;-76
2023/05/01 01:04:37;;;;;;;;;;;14.70;99.90;;;;;;5120071;28;19908;-75
2023/05/01 01:07:08;;;;;;;;;;;14.60;99.90;;;;;;5101399;28;19968;-80
2023/05/01 01:09:52;;;;;;;;;;;14.70;99.90;;;;;;5120132;28;19915;-76
2023/05/01 01:12:24;;;;;;;;;;;14.60;99.90;;;;;;5120059;28;19969;-76
2023/05/01 01:14:54;;;;;;;;;;;14.60;99.90;;;;;;5119774;28;19908;-76
2023/05/01 01:17:28;;;;;;;;;;;14.60;99.90;;;;;;5120306;28;19907;-76
2023/05/01 01:19:54;;;;;;;;;;;14.70;99.90;;;;;;5120100;28;19912;-77
2023/05/01 01:22:22;;;;;;;;;;;14.70;99.90;;;;;;5119786;28;20370;-78
2023/05/01 01:24:58;;;;;;;;;;;14.80;99.90;;;;;;5119527;28;20319;-77
2023/05/01 01:27:29;;;;;;;;;;;14.80;99.90;;;;;;5120114;28;19908;-74
2023/05/01 01:30:13;;;;;;;;;;;14.80;99.90;;;;;;5119829;28;19912;-76
2023/05/01 01:32:57;;;;;;;;;;;14.80;99.90;;;;;;5119694;28;19908;-75
2023/05/01 01:35:25;;;;;;;;;;;14.90;99.90;;;;;;5119175;28;19912;-74
2023/05/01 01:37:54;;;;;;;;;;;14.90;99.90;;;;;;5119862;28;19907;-75
2023/05/01 01:40:23;;;;;;;;;;;14.80;99.90;;;;;;5119233;28;19908;-77
2023/05/01 01:42:51;;;;;;;;;;;14.80;99.90;;;;;;5118938;28;20018;-75
2023/05/01 01:45:22;;;;;;;;;;;14.80;99.90;;;;;;5119000;28;19929;-75
2023/05/01 01:47:49;;;;;;;;;;;14.80;99.90;;;;;;5119242;28;19961;-73
2023/05/01 01:50:16;;;;;;;;;;;14.70;99.90;;;;;;5119373;28;20371;-75
2023/05/01 01:52:42;;;;;;;;;;;14.80;99.90;;;;;;5118998;28;19947;-75
2023/05/01 01:55:10;;;;;;;;;;;14.80;99.90;;;;;;5118856;28;19907;-77
2023/05/01 01:57:36;;;;;;;;;;;14.80;99.90;;;;;;5118772;28;19911;-77
2023/05/01 02:00:07;;;;;;;;;;;14.80;99.90;;;;;;5118812;28;19957;-80
2023/05/01 02:02:34;;;;;;;;;;;14.80;99.90;;;;;;5100408;28;19919;-77
2023/05/01 02:05:00;;;;;;;;;;;14.80;99.90;;;;;;5118605;28;19994;-75
2023/05/01 02:07:27;;;;;;;;;;;14.70;99.90;;;;;;5118549;28;20064;-76
2023/05/01 02:09:53;;;;;;;;;;;14.70;99.90;;;;;;5118665;28;19908;-75
2023/05/01 02:12:19;;;;;;;;;;;14.70;99.90;;;;;;5118732;28;20329;-76
2023/05/01 02:14:46;;;;;;;;;;;14.60;99.90;;;;;;5118026;28;20006;-76
2023/05/01 02:17:14;;;;;;;;;;;14.70;99.90;;;;;;5100553;28;19919;-77
2023/05/01 02:19:41;;;;;;;;;;;14.60;99.90;;;;;;5118717;28;20036;-77
2023/05/01 02:22:08;;;;;;;;;;;14.50;99.90;;;;;;5118938;28;19912;-76
2023/05/01 02:24:34;;;;;;;;;;;14.40;99.90;;;;;;5118762;28;19908;-74
2023/05/01 02:27:02;;;;;;;;;;;14.40;99.90;;;;;;5118704;28;19911;-77
2023/05/01 02:29:28;;;;;;;;;;;14.50;99.90;;;;;;5118434;28;20407;-78
2023/05/01 02:31:54;;;;;;;;;;;14.60;99.90;;;;;;5118465;28;19939;-75
2023/05/01 02:34:19;;;;;;;;;;;14.50;99.90;;;;;;5118180;28;19960;-79
2023/05/01 02:36:45;;;;;;;;;;;14.40;99.90;;;;;;5118417;28;19911;-76
2023/05/01 02:39:10;;;;;;;;;;;14.30;99.90;;;;;;5118096;28;19938;-76
2023/05/01 02:41:37;;;;;;;;;;;14.50;99.90;;;;;;5117929;28;19927;-79
2023/05/01 02:44:04;;;;;;;;;;;14.50;99.90;;;;;;5118918;28;19950;-76
2023/05/01 02:46:35;;;;;;;;;;;14.30;99.90;;;;;;5118566;28;19908;-78
2023/05/01 02:49:01;;;;;;;;;;;14.40;99.90;;;;;;5118453;28;19908;-75
2023/05/01 02:51:28;;;;;;;;;;;14.50;99.90;;;;;;5118000;28;19916;-75
2023/05/01 02:53:54;;;;;;;;;;;14.50;99.90;;;;;;5118205;28;19912;-76
2023/05/01 02:56:20;;;;;;;;;;;14.40;99.90;;;;;;5118073;28;20433;-79
2023/05/01 02:58:47;;;;;;;;;;;14.30;99.90;;;;;;5118203;28;19912;-77
2023/05/01 03:01:12;;;;;;;;;;;14.10;99.90;;;;;;5117495;28;19911;-76
2023/05/01 03:03:38;;;;;;;;;;;14.00;99.90;;;;;;5118612;28;20007;-76
2023/05/01 03:06:04;;;;;;;;;;;14.00;99.90;;;;;;5117774;28;19915;-76
2023/05/01 03:08:29;;;;;;;;;;;14.00;99.90;;;;;;5117718;28;19907;-76
2023/05/01 03:10:55;;;;;;;;;;;14.00;99.90;;;;;;5117523;28;19907;-75
2023/05/01 03:13:21;;;;;;;;;;;14.00;99.90;;;;;;5117727;28;19908;-77
2023/05/01 03:15:47;;;;;;;;;;;14.00;99.90;;;;;;5098955;28;19908;-77
2023/05/01 03:18:13;;;;;;;;;;;14.10;99.90;;;;;;5117486;28;19945;-78
2023/05/01 03:20:38;;;;;;;;;;;14.10;99.90;;;;;;5117909;28;19908;-78
2023/05/01 03:23:05;;;;;;;;;;;14.20;99.90;;;;;;5117497;28;20379;-75
2023/05/01 03:25:31;;;;;;;;;;;14.10;99.90;;;;;;5116480;28;19908;-77
2023/05/01 03:27:56;;;;;;;;;;;14.10;99.90;;;;;;5117251;28;19914;-76
2023/05/01 03:30:22;;;;;;;;;;;14.10;99.90;;;;;;5117164;28;19951;-78
2023/05/01 03:32:48;;;;;;;;;;;14.00;99.90;;;;;;5117112;28;19957;-79
2023/05/01 03:35:13;;;;;;;;;;;13.80;99.90;;;;;;5117090;28;20317;-75
2023/05/01 03:37:39;;;;;;;;;;;13.70;99.90;;;;;;5117239;28;19915;-77
2023/05/01 03:40:05;;;;;;;;;;;13.50;99.90;;;;;;5116934;28;19935;-75
2023/05/01 03:42:30;;;;;;;;;;;13.30;99.90;;;;;;5116688;28;19920;-76
2023/05/01 03:44:56;;;;;;;;;;;13.10;99.90;;;;;;5117187;28;20286;-73
2023/05/01 03:47:22;;;;;;;;;;;13.00;99.90;;;;;;5116981;28;19912;-77
2023/05/01 03:49:47;;;;;;;;;;;12.90;99.90;;;;;;5098196;28;19908;-74
2023/05/01 03:52:13;;;;;;;;;;;12.80;99.90;;;;;;5116780;28;19998;-75
2023/05/01 03:54:39;;;;;;;;;;;12.80;99.90;;;;;;5117066;28;19907;-78
2023/05/01 03:57:04;;;;;;;;;;;12.70;99.90;;;;;;5116760;28;19937;-78
2023/05/01 03:59:30;;;;;;;;;;;12.80;99.90;;;;;;5116253;28;19907;-76
2023/05/01 04:01:55;;;;;;;;;;;12.80;99.90;;;;;;5116378;28;19999;-75
2023/05/01 04:04:21;;;;;;;;;;;12.80;99.90;;;;;;5116482;28;19908;-75
2023/05/01 04:06:48;;;;;;;;;;;12.80;99.90;;;;;;5116732;28;19908;-78
2023/05/01 04:09:14;;;;;;;;;;;12.90;99.90;;;;;;5116155;28;19912;-78
2023/05/01 04:11:40;;;;;;;;;;;12.70;99.90;;;;;;5116619;28;19907;-77
2023/05/01 04:14:06;;;;;;;;;;;12.70;99.90;;;;;;5116175;28;19908;-76
2023/05/01 04:16:31;;;;;;;;;;;12.70;99.90;;;;;;5116702;28;20325;-76
2023/05/01 04:18:57;;;;;;;;;;;12.60;99.90;;;;;;5116288;28;20394;-75
2023/05/01 04:21:22;;;;;;;;;;;12.60;99.90;;;;;;5116286;28;19915;-76
2023/05/01 04:23:48;;;;;;;;;;;12.50;99.90;;;;;;5116261;28;20367;-76
2023/05/01 04:26:15;;;;;;;;;;;12.50;99.90;;;;;;5116739;28;19915;-73
2023/05/01 04:28:40;;;;;;;;;;;12.50;99.90;;;;;;5116127;28;20337;-76
2023/05/01 04:31:06;;;;;;;;;;;12.40;99.90;;;;;;5115959;28;19934;-78
2023/05/01 04:33:31;;;;;;;;;;;12.40;99.90;;;;;;5116033;28;19908;-78
2023/05/01 04:35:57;;;;;;;;;;;12.20;99.90;;;;;;5116117;28;20351;-75
2023/05/01 04:38:23;;;;;;;;;;;12.10;99.90;;;;;;5115860;28;19908;-75
2023/05/01 04:40:48;;;;;;;;;;;12.10;99.90;;;;;;5115970;28;19920;-76
2023/05/01 04:43:14;;;;;;;;;;;12.20;99.90;;;;;;5115684;28;20011;-75
2023/05/01 04:45:39;;;;;;;;;;;12.10;99.90;;;;;;5115946;28;19908;-75
2023/05/01 04:48:05;;;;;;;;;;;12.00;99.90;;;;;;5116035;28;19908;-76
2023/05/01 04:50:31;;;;;;;;;;;12.20;99.90;;;;;;5116377;28;19912;-75
2023/05/01 04:52:58;;;;;;;;;;;12.50;99.90;;;;;;5116244;28;19943;-77
2023/05/01 04:55:23;;;;;;;;;;;12.70;99.90;;;;;;5115811;28;19908;-76
2023/05/01 04:57:49;;;;;;;;;;;12.90;99.90;;;;;;5098094;28;19922;-75
2023/05/01 05:00:15;;;;;;;;;;;12.90;99.90;;;;;;5115902;28;19914;-77
2023/05/01 05:02:40;;;;;;;;;;;12.80;99.90;;;;;;5116012;28;19919;-74
2023/05/01 05:05:06;;;;;;;;;;;12.90;99.90;;;;;;5116149;28;19914;-75
2023/05/01 05:07:32;;;;;;;;;;;13.00;99.90;;;;;;5116196;28;19912;-75
2023/05/01 05:09:57;;;;;;;;;;;13.10;99.90;;;;;;5116031;28;20376;-75
2023/05/01 05:12:23;;;;;;;;;;;13.10;99.90;;;;;;5115960;28;19929;-76
2023/05/01 05:14:48;;;;;;;;;;;12.70;99.90;;;;;;5115602;28;19912;-75
2023/05/01 05:17:14;;;;;;;;;;;12.70;99.90;;;;;;5115915;28;19915;-75
2023/05/01 05:19:39;;;;;;;;;;;13.00;99.90;;;;;;5116279;28;19908;-77
2023/05/01 05:22:05;;;;;;;;;;;13.20;99.90;;;;;;5116261;28;19955;-77
2023/05/01 05:24:31;;;;;;;;;;;13.20;99.90;;;;;;5097619;28;20460;-76
2023/05/01 05:26:56;;;;;;;;;;;13.10;99.90;;;;;;5115868;28;20286;-76
2023/05/01 05:29:22;;;;;;;;;;;13.00;99.90;;;;;;5115978;28;20008;-76
2023/05/01 05:31:48;;;;;;;;;;;13.00;99.90;;;;;;5115405;28;19908;-78
2023/05/01 05:34:13;;;;;;;;;;;13.30;99.90;;;;;;5115669;28;20295;-78
2023/05/01 05:36:39;;;;;;;;;;;13.50;99.90;;;;;;5115479;28;19908;-76
2023/05/01 05:39:04;;;;;;;;;;;13.60;99.90;;;;;;5115696;28;20389;-77
2023/05/01 05:41:30;;;;;;;;;;;13.80;99.90;;;;;;5115876;28;19920;-77
2023/05/01 05:43:55;;;;;;;;;;;13.80;99.90;;;;;;5115498;28;19912;-77
2023/05/01 05:46:21;;;;;;;;;;;13.80;99.90;;;;;;5115117;28;20283;-74
2023/05/01 05:48:46;;;;;;;;;;;13.60;99.90;;;;;;5097661;28;19908;-75
2023/05/01 05:51:12;;;;;;;;;;;13.50;99.90;;;;;;5100956;28;19912;-76
2023/05/01 05:53:38;;;;;;;;;;;13.50;99.90;;;;;;5119021;28;19908;-76
2023/05/01 05:56:03;;;;;;;;;;;13.50;99.90;;;;;;5118804;28;19943;-77
2023/05/01 05:58:29;;;;;;;;;;;13.50;99.90;;;;;;5119157;28;19912;-75
2023/05/01 06:00:55;;;;;;;;;;;13.40;99.90;;;;;;5118907;28;19957;-76
2023/05/01 06:03:20;;;;;;;;;;;13.30;99.90;;;;;;5118458;28;19918;-75
2023/05/01 06:05:46;;;;;;;;;;;13.50;99.90;;;;;;5118798;28;19915;-76
2023/05/01 06:08:13;;;;;;;;;;;13.70;99.90;;;;;;5118941;28;19912;-76
2023/05/01 06:10:40;;;;;;;;;;;13.60;99.90;;;;;;5100265;28;19908;-78
2023/05/01 06:13:09;;;;;;;;;;;13.70;99.90;;;;;;5118333;28;19931;-76
2023/05/01 06:15:36;;;;;;;;;;;13.90;99.90;;;;;;5118595;28;19915;-78
2023/05/01 06:18:01;;;;;;;;;;;14.00;99.90;;;;;;5118470;28;19969;-79
2023/05/01 06:20:28;;;;;;;;;;;14.10;99.90;;;;;;5118430;28;20364;-74
2023/05/01 06:22:53;;;;;;;;;;;14.10;99.90;;;;;;5118271;28;19912;-78
2023/05/01 06:25:19;;;;;;;;;;;14.10;99.90;;;;;;5100027;28;19908;-76
2023/05/01 06:27:44;;;;;;;;;;;14.20;99.90;;;;;;5118762;28;19998;-77
2023/05/01 06:30:11;;;;;;;;;;;14.40;99.90;;;;;;5099903;28;20280;-74
2023/05/01 06:32:36;;;;;;;;;;;14.40;99.90;;;;;;5118379;28;19907;-75
2023/05/01 06:35:02;;;;;;;;;;;14.20;99.90;;;;;;5118563;28;19912;-75
2023/05/01 06:37:28;;;;;;;;;;;14.00;99.90;;;;;;5118153;28;19908;-75
2023/05/01 06:39:54;;;;;;;;;;;14.20;99.90;;;;;;5118190;28;19908;-77
2023/05/01 06:42:20;;;;;;;;;;;14.40;99.90;;;;;;5117824;28;20291;-78
2023/05/01 06:44:45;;;;;;;;;;;14.50;99.90;;;;;;5118151;28;19908;-77
2023/05/01 06:47:11;;;;;;;;;;;14.60;99.90;;;;;;5118474;28;19929;-76
2023/05/01 06:49:37;;;;;;;;;;;14.90;99.90;;;;;;5117781;28;19908;-72
2023/05/01 06:52:02;;;;;;;;;;;14.90;99.90;;;;;;5118349;28;19979;-77
2023/05/01 06:54:28;;;;;;;;;;;14.90;99.90;;;;;;5117926;28;19940;-77
2023/05/01 06:56:53;;;;;;;;;;;15.20;99.90;;;;;;5117980;28;19974;-78
2023/05/01 06:59:19;;;;;;;;;;;15.10;99.90;;;;;;5117869;28;19907;-79
2023/05/01 07:01:45;;;;;;;;;;;15.20;99.90;;;;;;5118351;28;20290;-75
2023/05/01 07:04:10;;;;;;;;;;;15.20;99.90;;;;;;5118392;28;19908;-77
2023/05/01 07:06:36;;;;;;;;;;;15.20;99.90;;;;;;5117919;28;19915;-77
2023/05/01 07:09:02;;;;;;;;;;;15.40;99.90;;;;;;5117685;28;20442;-76
2023/05/01 07:11:28;;;;;;;;;;;15.60;99.90;;;;;;5117513;28;19914;-74
2023/05/01 07:13:53;;;;;;;;;;;15.90;99.90;;;;;;5117492;28;20287;-77
2023/05/01 07:16:19;;;;;;;;;;;16.30;99.90;;;;;;5117754;28;19974;-78
2023/05/01 07:18:45;;;;;;;;;;;16.30;99.90;;;;;;5117409;28;20371;-75
2023/05/01 07:21:11;;;;;;;;;;;16.40;99.90;;;;;;5117703;28;19915;-76
2023/05/01 07:23:36;;;;;;;;;;;16.20;99.90;;;;;;5117511;28;20413;-76
2023/05/01 07:26:02;;;;;;;;;;;16.30;99.90;;;;;;5117172;28;19919;-76
2023/05/01 07:28:28;;;;;;;;;;;16.20;99.90;;;;;;5118092;28;19915;-74
2023/05/01 07:30:54;;;;;;;;;;;16.20;99.90;;;;;;5117011;28;19908;-74
2023/05/01 07:33:19;;;;;;;;;;;16.30;99.90;;;;;;5117184;28;20268;-80
2023/05/01 07:35:45;;;;;;;;;;;16.40;99.90;;;;;;5117046;28;19947;-76
2023/05/01 07:38:11;;;;;;;;;;;16.60;99.90;;;;;;5117082;28;19919;-75
2023/05/01 07:40:37;;;;;;;;;;;16.80;99.90;;;;;;5117207;28;19914;-74
2023/05/01 07:43:03;;;;;;;;;;;16.90;99.90;;;;;;5096939;28;19928;-75
2023/05/01 07:45:29;;;;;;;;;;;17.30;99.90;;;;;;5096851;28;19916;-76
2023/05/01 07:47:55;;;;;;;;;;;17.90;99.90;;;;;;5096820;28;19909;-72
2023/05/01 07:50:21;;;;;;;;;;;17.80;99.90;;;;;;5096571;28;20384;-75
2023/05/01 07:52:47;;;;;;;;;;;17.70;99.90;;;;;;5096383;28;19915;-75
2023/05/01 07:55:12;;;;;;;;;;;17.90;99.90;;;;;;5096627;28;19912;-75
2023/05/01 07:57:38;;;;;;;;;;;18.00;99.90;;;;;;5096129;28;20372;-75
2023/05/01 08:00:04;;;;;;;;;;;18.40;99.90;;;;;;5095949;28;19908;-74
2023/05/01 08:02:30;;;;;;;;;;;18.70;99.90;;;;;;5095725;28;19962;-73
2023/05/01 08:04:55;;;;;;;;;;;18.90;99.90;;;;;;5096421;28;19908;-74
2023/05/01 08:07:21;;;;;;;;;;;19.30;99.90;;;;;;5095884;28;19915;-74
2023/05/01 08:09:47;;;;;;;;;;;19.30;99.90;;;;;;5077905;28;19999;-74
2023/05/01 08:12:12;;;;;;;;;;;18.80;99.90;;;;;;5095916;28;19912;-72
2023/05/01 08:14:38;;;;;;;;;;;18.40;99.90;;;;;;5095817;28;19995;-75
2023/05/01 08:17:03;;;;;;;;;;;18.40;99.90;;;;;;5095806;28;20324;-77
2023/05/01 08:19:29;;;;;;;;;;;18.00;99.90;;;;;;5095480;28;19908;-73
2023/05/01 08:21:55;;;;;;;;;;;18.00;99.90;;;;;;5095608;28;19955;-73
2023/05/01 08:24:20;;;;;;;;;;;18.30;99.90;;;;;;5095715;28;19961;-74
2023/05/01 08:26:47;;;;;;;;;;;18.60;99.90;;;;;;5094855;28;19908;-74
2023/05/01 08:29:13;;;;;;;;;;;18.80;99.90;;;;;;5095577;28;19966;-75
2023/05/01 08:31:38;;;;;;;;;;;18.70;99.90;;;;;;5095772;28;19912;-73
2023/05/01 08:34:04;;;;;;;;;;;18.50;99.90;;;;;;5095670;28;19908;-76
2023/05/01 08:36:31;;;;;;;;;;;18.40;99.90;;;;;;5095671;28;19908;-76
2023/05/01 08:38:57;;;;;;;;;;;18.40;99.90;;;;;;5095367;28;20287;-75
2023/05/01 08:41:22;;;;;;;;;;;18.40;99.90;;;;;;5101396;28;19930;-73
2023/05/01 08:43:48;;;;;;;;;;;18.70;99.90;;;;;;5116084;28;19915;-74
2023/05/01 08:46:20;;;;;;;;;;;18.90;99.90;;;;;;5115124;28;20371;-72
2023/05/01 08:48:47;;;;;;;;;;;18.90;99.90;;;;;;5115649;28;19961;-75
2023/05/01 08:51:15;;;;;;;;;;;19.20;99.90;;;;;;5115867;28;20002;-74
2023/05/01 08:53:41;;;;;;;;;;;20.20;99.90;;;;;;5115589;28;19908;-76
2023/05/01 08:56:08;;;;;;;;;;;21.30;99.90;;;;;;5116063;28;19914;-76
2023/05/01 08:58:34;;;;;;;;;;;22.20;99.90;;;;;;5116070;28;19908;-75
2023/05/01 09:01:01;;;;;;;;;;;22.10;99.90;;;;;;5115702;28;20390;-74
2023/05/01 09:03:30;;;;;;;;;;;21.40;99.90;;;;;;5116072;28;19912;-73
2023/05/01 09:05:56;;;;;;;;;;;20.60;99.90;;;;;;5116122;28;19907;-74
2023/05/01 09:08:21;;;;;;;;;;;20.40;99.90;;;;;;5115733;28;19915;-76
2023/05/01 09:10:47;;;;;;;;;;;20.20;99.90;;;;;;5115552;28;19961;-72
2023/05/01 09:13:13;;;;;;;;;;;20.00;99.90;;;;;;5115582;28;20286;-73
2023/05/01 09:15:39;;;;;;;;;;;19.70;99.90;;;;;;5115588;28;19908;-77
2023/05/01 09:18:04;;;;;;;;;;;20.00;99.90;;;;;;5115660;28;19914;-75
2023/05/01 09:20:30;;;;;;;;;;;20.60;99.90;;;;;;5097490;28;19950;-73
2023/05/01 09:22:56;;;;;;;;;;;21.20;99.90;;;;;;5115473;28;19912;-75
2023/05/01 09:25:22;;;;;;;;;;;22.30;99.90;;;;;;5118754;28;20447;-74
2023/05/01 09:27:48;;;;;;;;;;;22.60;99.90;;;;;;5119712;28;19960;-74
2023/05/01 09:30:32;;;;;;;;;;;22.40;99.90;;;;;;5119647;28;19947;-73
2023/05/01 09:33:08;;;;;;;;;;;22.10;99.90;;;;;;5119557;28;20360;-73
2023/05/01 09:35:50;;;;;;;;;;;22.30;99.90;;;;;;5119625;28;19911;-75
2023/05/01 09:38:17;;;;;;;;;;;24.50;99.90;;;;;;5120000;28;20271;-74
2023/05/01 09:40:42;;;;;;;;;;;30.00;99.90;;;;;;5119116;28;20452;-76
2023/05/01 09:43:08;;;;;;;;;;;32.60;99.90;;;;;;5119415;28;19911;-76
2023/05/01 09:45:34;;;;;;;;;;;34.20;99.90;;;;;;5119075;28;19907;-75
2023/05/01 09:48:09;;;;;;;;;;;36.10;99.90;;;;;;5100986;28;19908;-78
2023/05/01 09:50:35;;;;;;;;;;;37.30;99.90;;;;;;5119129;28;19908;-78
2023/05/01 09:53:03;;;;;;;;;;;38.10;99.90;;;;;;5119403;28;19915;-75
2023/05/01 09:55:29;;;;;;;;;;;40.80;99.90;;;;;;5118917;28;20316;-74
2023/05/01 09:57:54;;;;;;;;;;;38.20;99.90;;;;;;5100991;28;19953;-76
2023/05/01 10:00:20;;;;;;;;;;;32.40;99.90;;;;;;5118961;28;19947;-76
2023/05/01 10:02:47;;;;;;;;;;;27.70;99.90;;;;;;5118896;28;19911;-76
2023/05/01 10:05:13;;;;;;;;;;;24.90;99.90;;;;;;5118248;28;19961;-74
2023/05/01 10:07:39;;;;;;;;;;;23.20;99.90;;;;;;5118358;28;20329;-74
2023/05/01 10:10:15;;;;;;;;;;;22.60;99.90;;;;;;5118316;28;20264;-74
2023/05/01 10:12:40;;;;;;;;;;;22.70;99.90;;;;;;5118315;28;19908;-77
2023/05/01 10:15:06;;;;;;;;;;;22.50;99.90;;;;;;5118522;28;19972;-74
2023/05/01 10:17:32;;;;;;;;;;;22.30;99.90;;;;;;5100020;28;19933;-74
2023/05/01 10:19:58;;;;;;;;;;;23.40;99.90;;;;;;5118623;28;19908;-74
2023/05/01 10:22:25;;;;;;;;;;;25.60;99.90;;;;;;5118303;28;19923;-78
2023/05/01 10:24:51;;;;;;;;;;;30.90;99.90;;;;;;5118336;28;19907;-75
2023/05/01 10:27:17;;;;;;;;;;;33.40;99.90;;;;;;5118360;28;19915;-76
2023/05/01 10:29:44;;;;;;;;;;;35.40;99.90;;;;;;5118294;28;20283;-77
2023/05/01 10:32:10;;;;;;;;;;;39.20;99.90;;;;;;5118281;28;19915;-75
2023/05/01 10:34:41;;;;;;;;;;;33.70;99.90;;;;;;5118230;28;19908;-77
2023/05/01 10:37:27;;;;;;;;;;;29.30;99.90;;;;;;5118386;28;19961;-75
2023/05/01 10:39:52;;;;;;;;;;;26.40;99.90;;;;;;5100531;28;19912;-76
2023/05/01 10:42:18;;;;;;;;;;;30.20;99.90;;;;;;5117469;28;19920;-78
2023/05/01 10:44:46;;;;;;;;;;;31.90;99.90;;;;;;5117671;28;19908;-76
2023/05/01 10:47:26;;;;;;;;;;;37.50;99.90;;;;;;5117594;28;19908;-75
2023/05/01 10:50:06;;;;;;;;;;;41.40;99.90;;;;;;5099581;28;20287;-77
2023/05/01 10:52:50;;;;;;;;;;;41.90;99.90;;;;;;5117850;28;19914;-76
2023/05/01 10:55:34;;;;;;;;;;;43.10;99.90;;;;;;5099203;28;19915;-76
2023/05/01 10:57:59;;;;;;;;;;;43.10;99.90;;;;;;5117393;28;19914;-74
2023/05/01 11:00:25;;;;;;;;;;;43.10;99.90;;;;;;5117344;28;19907;-78
2023/05/01 11:02:51;;;;;;;;;;;42.90;99.90;;;;;;5116978;28;19918;-77
2023/05/01 11:05:16;;;;;;;;;;;41.60;99.90;;;;;;5117268;28;20291;-76
2023/05/01 11:07:42;;;;;;;;;;;41.60;99.90;;;;;;5117468;28;19920;-79
2023/05/01 11:10:26;;;;;;;;;;;39.80;99.90;;;;;;5117410;28;19961;-78
2023/05/01 11:12:52;;;;;;;;;;;39.50;99.90;;;;;;5117170;28;20312;-78
2023/05/01 11:15:25;;;;;;;;;;;40.50;99.90;;;;;;5117081;28;19994;-74
2023/05/01 11:17:51;;;;;;;;;;;40.50;99.90;;;;;;5116890;28;19907;-76
2023/05/01 11:20:25;;;;;;;;;;;36.60;99.90;;;;;;5116959;28;19908;-74
2023/05/01 11:22:51;;;;;;;;;;;32.30;99.90;;;;;;5116497;28;20014;-76
2023/05/01 11:25:21;;;;;;;;;;;31.80;99.90;;;;;;5116667;28;20384;-77
2023/05/01 11:27:48;;;;;;;;;;;33.70;99.90;;;;;;5116965;28;19907;-78
2023/05/01 11:30:14;;;;;;;;;;;37.20;99.90;;;;;;5117037;28;20022;-80
2023/05/01 11:32:41;;;;;;;;;;;39.60;99.90;;;;;;5116668;28;19951;-76
2023/05/01 11:35:07;;;;;;;;;;;41.10;99.90;;;;;;5116428;28;19908;-79
2023/05/01 11:37:46;;;;;;;;;;;38.50;99.90;;;;;;5098552;28;19912;-79
2023/05/01 11:40:32;;;;;;;;;;;36.00;99.90;;;;;;5116900;28;19915;-76
2023/05/01 11:43:01;;;;;;;;;;;32.50;99.90;;;;;;5096990;28;20295;-75
2023/05/01 11:45:27;;;;;;;;;;;32.20;99.90;;;;;;5116103;28;19908;-78
2023/05/01 11:47:53;;;;;;;;;;;37.10;99.90;;;;;;5115475;28;20446;-79
2023/05/01 11:50:20;;;;;;;;;;;39.80;99.90;;;;;;5116223;28;19915;-76
2023/05/01 11:52:52;;;;;;;;;;;39.10;99.90;;;;;;5116497;28;19908;-77
2023/05/01 11:55:29;;;;;;;;;;;34.50;99.90;;;;;;5116120;28;20387;-77
2023/05/01 11:57:55;;;;;;;;;;;32.60;99.90;;;;;;5097356;28;20287;-78
2023/05/01 12:00:27;;;;;;;;;;;32.90;99.90;;;;;;5116032;28;19908;-77
2023/05/01 12:03:05;;;;;;;;;;;36.20;99.90;;;;;;5115893;28;19911;-78
2023/05/01 12:05:31;;;;;;;;;;;40.60;99.90;;;;;;5115744;28;19907;-76
2023/05/01 12:08:18;;;;;;;;;;;43.10;99.90;;;;;;5115475;28;20375;-76
2023/05/01 12:10:45;;;;;;;;;;;45.30;99.90;;;;;;5115881;28;19969;-77
2023/05/01 12:13:12;;;;;;;;;;;38.50;99.90;;;;;;5115851;28;19931;-75
2023/05/01 12:15:39;;;;;;;;;;;33.10;99.90;;;;;;5115662;28;20321;-79
2023/05/01 12:18:05;;;;;;;;;;;33.30;99.90;;;;;;5115412;28;19908;-75
2023/05/01 12:20:34;;;;;;;;;;;33.20;99.90;;;;;;5115541;28;20265;-78
2023/05/01 12:23:00;;;;;;;;;;;39.20;99.90;;;;;;5115604;28;19911;-77
2023/05/01 12:25:30;;;;;;;;;;;34.80;99.90;;;;;;5115174;28;19908;-77
2023/05/01 12:27:56;;;;;;;;;;;33.40;99.90;;;;;;5115427;28;20425;-77
2023/05/01 12:30:28;;;;;;;;;;;39.00;99.90;;;;;;5115636;28;19907;-76
2023/05/01 12:32:55;;;;;;;;;;;42.80;99.90;;;;;;5115281;28;19915;-76
2023/05/01 12:35:21;;;;;;;;;;;44.40;99.90;;;;;;5115464;28;20374;-76
2023/05/01 12:37:47;;;;;;;;;;;43.70;99.90;;;;;;5097117;28;19911;-78
2023/05/01 12:40:13;;;;;;;;;;;44.10;99.90;;;;;;5115228;28;20268;-78
2023/05/01 12:42:39;;;;;;;;;;;41.80;99.90;;;;;;5114816;28;19927;-79
2023/05/01 12:45:05;;;;;;;;;;;36.20;99.90;;;;;;5114850;28;19908;-76
2023/05/01 12:47:37;;;;;;;;;;;34.20;99.90;;;;;;5115204;28;19915;-78
2023/05/01 12:50:03;;;;;;;;;;;37.20;99.90;;;;;;5115119;28;20282;-76
2023/05/01 12:52:29;;;;;;;;;;;41.90;99.90;;;;;;5115187;28;19946;-76
2023/05/01 12:55:01;;;;;;;;;;;43.40;99.90;;;;;;5115210;28;19992;-78
2023/05/01 12:57:27;;;;;;;;;;;44.50;99.90;;;;;;5115337;28;20260;-79
2023/05/01 12:59:57;;;;;;;;;;;44.10;99.90;;;;;;5119429;28;19937;-80
2023/05/01 13:02:28;;;;;;;;;;;45.10;99.90;;;;;;5100768;28;19951;-76
2023/05/01 13:05:04;;;;;;;;;;;43.90;99.90;;;;;;5119591;28;20010;-77
2023/05/01 13:07:29;;;;;;;;;;;40.50;99.90;;;;;;5119347;28;19908;-74
2023/05/01 13:09:57;;;;;;;;;;;34.30;99.90;;;;;;5118816;28;19957;-77
2023/05/01 13:12:23;;;;;;;;;;;30.60;99.90;;;;;;5118902;28;20522;-74
2023/05/01 13:14:49;;;;;;;;;;;28.60;99.90;;;;;;5118901;28;19911;-79
2023/05/01 13:17:22;;;;;;;;;;;29.90;99.90;;;;;;5119218;28;20387;-79
2023/05/01 13:19:58;;;;;;;;;;;36.90;99.90;;;;;;5119070;28;19953;-76
2023/05/01 13:22:41;;;;;;;;;;;39.60;99.90;;;;;;5118739;28;19912;-83
2023/05/01 13:25:19;;;;;;;;;;;36.30;99.90;;;;;;5118907;28;19908;-78
2023/05/01 13:27:48;;;;;;;;;;;32.60;99.90;;;;;;5118543;28;19915;-73
2023/05/01 13:30:14;;;;;;;;;;;30.30;99.90;;;;;;5118324;28;20319;-77
2023/05/01 13:32:41;;;;;;;;;;;29.00;99.90;;;;;;5118619;28;19914;-75
2023/05/01 13:35:07;;;;;;;;;;;31.80;99.90;;;;;;5118660;28;19908;-79
2023/05/01 13:37:34;;;;;;;;;;;35.60;99.90;;;;;;5099969;28;19949;-77
2023/05/01 13:39:59;;;;;;;;;;;36.10;99.90;;;;;;5118506;28;20275;-75
2023/05/01 13:42:25;;;;;;;;;;;34.10;99.90;;;;;;5118172;28;19927;-78
2023/05/01 13:44:52;;;;;;;;;;;32.10;99.90;;;;;;5118386;28;19912;-78
2023/05/01 13:47:18;;;;;;;;;;;31.60;99.90;;;;;;5118739;28;19908;-74
2023/05/01 13:49:44;;;;;;;;;;;31.00;99.90;;;;;;5100083;28;19908;-77
2023/05/01 13:52:11;;;;;;;;;;;29.60;99.90;;;;;;5117916;28;19908;-76
2023/05/01 13:54:42;;;;;;;;;;;29.00;99.90;;;;;;5118338;28;19998;-74
2023/05/01 13:57:08;;;;;;;;;;;29.10;99.90;;;;;;5118043;28;19998;-76
2023/05/01 13:59:44;;;;;;;;;;;28.60;99.90;;;;;;5117960;28;20321;-78
2023/05/01 14:02:13;;;;;;;;;;;28.40;99.90;;;;;;5118075;28;19912;-76
2023/05/01 14:04:39;;;;;;;;;;;28.80;99.90;;;;;;5117932;28;19908;-74
2023/05/01 14:07:05;;;;;;;;;;;28.50;99.90;;;;;;5099515;28;19947;-78
2023/05/01 14:09:34;;;;;;;;;;;29.30;99.90;;;;;;5117290;28;20283;-76
2023/05/01 14:12:01;;;;;;;;;;;29.40;99.90;;;;;;5117807;28;19914;-75
2023/05/01 14:14:26;;;;;;;;;;;29.50;99.90;;;;;;5117820;28;19908;-78
2023/05/01 14:16:52;;;;;;;;;;;30.50;99.90;;;;;;5117581;28;20260;-77